createdAt,value
2018-05-25T00:00:22.827Z,0.00
2018-05-25T00:01:22.822Z,0.00
2018-05-25T00:02:22.821Z,0.00
2018-05-25T00:03:22.812Z,0.00
2018-05-25T00:04:22.807Z,0.00
2018-05-25T00:05:22.802Z,0.00
2018-05-25T00:06:22.796Z,0.00
2018-05-25T00:07:22.791Z,0.00
2018-05-25T00:08:22.786Z,0.00
2018-05-25T00:09:22.983Z,0.00
2018-05-25T00:10:22.775Z,0.00
2018-05-25T00:11:22.771Z,0.00
2018-05-25T00:12:22.765Z,0.00
2018-05-25T00:13:22.761Z,0.00
2018-05-25T00:14:22.755Z,0.00
2018-05-25T00:15:22.750Z,0.00
2018-05-25T00:16:22.745Z,0.00
2018-05-25T00:17:22.740Z,0.00
2018-05-25T00:18:22.734Z,0.00
2018-05-25T00:19:22.936Z,0.00
2018-05-25T00:20:22.724Z,0.00
2018-05-25T00:21:22.720Z,0.00
2018-05-25T00:22:22.714Z,0.00
2018-05-25T00:23:22.709Z,0.00
2018-05-25T00:24:22.706Z,0.00
2018-05-25T00:25:22.699Z,0.00
2018-05-25T00:26:22.693Z,0.00
2018-05-25T00:27:22.689Z,0.00
2018-05-25T00:28:22.683Z,0.00
2018-05-25T00:29:22.678Z,0.00
2018-05-25T00:30:22.675Z,0.00
2018-05-25T00:31:22.667Z,0.00
2018-05-25T00:32:22.663Z,0.00
2018-05-25T00:33:22.659Z,0.00
2018-05-25T00:34:22.651Z,0.00
2018-05-25T00:35:22.645Z,0.00
2018-05-25T00:36:22.641Z,0.00
2018-05-25T00:37:22.635Z,0.00
2018-05-25T00:38:22.629Z,0.00
2018-05-25T00:39:22.624Z,0.00
2018-05-25T00:40:22.623Z,0.00
2018-05-25T00:41:22.613Z,0.00
2018-05-25T00:42:22.606Z,0.00
2018-05-25T00:43:22.602Z,0.00
2018-05-25T00:44:22.597Z,0.00
2018-05-25T00:45:22.591Z,0.00
2018-05-25T00:46:22.585Z,0.00
2018-05-25T00:47:22.580Z,0.00
2018-05-25T00:48:22.574Z,0.00
2018-05-25T00:49:22.569Z,0.00
2018-05-25T00:50:22.567Z,0.00
2018-05-25T00:51:22.557Z,0.00
2018-05-25T00:52:22.552Z,0.00
2018-05-25T00:53:22.547Z,0.00
2018-05-25T00:54:22.543Z,0.00
2018-05-25T00:55:22.537Z,0.00
2018-05-25T00:56:22.530Z,0.00
2018-05-25T00:57:22.526Z,0.00
2018-05-25T00:58:22.519Z,0.00
2018-05-25T00:59:22.514Z,0.00
2018-05-25T01:00:22.508Z,0.00
2018-05-25T01:01:22.505Z,0.00
2018-05-25T01:02:22.496Z,0.00
2018-05-25T01:03:22.492Z,0.00
2018-05-25T01:04:22.489Z,0.00
2018-05-25T01:05:22.481Z,0.00
2018-05-25T01:06:22.475Z,0.00
2018-05-25T01:07:22.469Z,0.00
2018-05-25T01:08:22.465Z,0.00
2018-05-25T01:09:22.459Z,0.00
2018-05-25T01:10:22.453Z,0.00
2018-05-25T01:11:22.450Z,0.00
2018-05-25T01:12:22.442Z,0.00
2018-05-25T01:13:22.438Z,0.00
2018-05-25T01:14:22.430Z,0.00
2018-05-25T01:15:22.428Z,0.00
2018-05-25T01:16:22.419Z,0.00
2018-05-25T01:17:22.414Z,0.00
2018-05-25T01:18:22.408Z,0.00
2018-05-25T01:19:22.402Z,0.00
2018-05-25T01:20:22.396Z,0.00
2018-05-25T01:21:22.393Z,0.00
2018-05-25T01:22:22.387Z,0.00
2018-05-25T01:23:22.380Z,0.00
2018-05-25T01:24:22.374Z,0.00
2018-05-25T01:25:22.371Z,0.00
2018-05-25T01:26:22.362Z,0.00
2018-05-25T01:27:22.357Z,0.00
2018-05-25T01:28:22.351Z,0.00
2018-05-25T01:29:22.346Z,0.00
2018-05-25T01:30:22.341Z,0.00
2018-05-25T01:31:22.333Z,0.00
2018-05-25T01:32:22.327Z,0.00
2018-05-25T01:33:22.322Z,0.00
2018-05-25T01:34:22.315Z,0.00
2018-05-25T01:35:22.310Z,0.00
2018-05-25T01:36:22.304Z,0.00
2018-05-25T01:37:22.301Z,0.00
2018-05-25T01:38:22.293Z,0.00
2018-05-25T01:39:22.286Z,0.00
2018-05-25T01:40:22.280Z,0.00
2018-05-25T01:41:22.276Z,0.00
2018-05-25T01:42:22.268Z,0.00
2018-05-25T01:43:22.265Z,0.00
2018-05-25T01:44:22.257Z,0.00
2018-05-25T01:45:22.252Z,0.00
2018-05-25T01:46:22.245Z,0.00
2018-05-25T01:47:22.239Z,0.00
2018-05-25T01:48:22.234Z,0.00
2018-05-25T01:49:22.228Z,0.00
2018-05-25T01:50:22.221Z,0.00
2018-05-25T01:51:22.216Z,0.00
2018-05-25T01:52:22.210Z,0.00
2018-05-25T01:53:22.205Z,0.00
2018-05-25T01:54:22.198Z,0.00
2018-05-25T01:55:22.192Z,0.00
2018-05-25T01:56:22.186Z,0.00
2018-05-25T01:57:22.186Z,0.00
2018-05-25T01:58:22.177Z,0.00
2018-05-25T01:59:22.169Z,0.00
2018-05-25T02:00:22.163Z,0.00
2018-05-25T02:01:22.158Z,0.00
2018-05-25T02:02:22.150Z,0.00
2018-05-25T02:03:22.145Z,0.00
2018-05-25T02:04:22.139Z,0.00
2018-05-25T02:05:22.138Z,0.00
2018-05-25T02:06:22.126Z,0.00
2018-05-25T02:07:22.121Z,0.00
2018-05-25T02:08:22.115Z,0.00
2018-05-25T02:09:22.110Z,0.00
2018-05-25T02:10:22.103Z,0.00
2018-05-25T02:11:22.097Z,0.00
2018-05-25T02:12:22.092Z,0.00
2018-05-25T02:13:22.086Z,0.00
2018-05-25T02:14:22.079Z,0.00
2018-05-25T02:15:22.078Z,0.00
2018-05-25T02:16:22.068Z,0.00
2018-05-25T02:17:22.062Z,0.00
2018-05-25T02:18:22.055Z,0.00
2018-05-25T02:19:22.050Z,0.00
2018-05-25T02:20:22.044Z,0.00
2018-05-25T02:21:22.038Z,0.00
2018-05-25T02:22:22.031Z,0.00
2018-05-25T02:23:22.026Z,0.00
2018-05-25T02:24:22.020Z,0.00
2018-05-25T02:25:22.015Z,0.00
2018-05-25T02:26:22.012Z,0.00
2018-05-25T02:27:22.002Z,0.00
2018-05-25T02:28:21.996Z,0.00
2018-05-25T02:29:21.990Z,0.00
2018-05-25T02:30:21.984Z,0.00
2018-05-25T02:31:21.978Z,0.00
2018-05-25T02:32:21.982Z,0.00
2018-05-25T02:33:21.967Z,0.00
2018-05-25T02:34:21.960Z,0.00
2018-05-25T02:35:21.955Z,0.00
2018-05-25T02:36:21.949Z,0.00
2018-05-25T02:37:21.947Z,0.00
2018-05-25T02:38:21.936Z,0.00
2018-05-25T02:39:21.930Z,0.00
2018-05-25T02:40:21.925Z,0.00
2018-05-25T02:41:21.919Z,0.00
2018-05-25T02:42:21.912Z,0.00
2018-05-25T02:43:21.906Z,0.00
2018-05-25T02:44:21.900Z,0.00
2018-05-25T02:45:21.894Z,0.00
2018-05-25T02:46:21.886Z,0.00
2018-05-25T02:47:21.885Z,0.00
2018-05-25T02:48:21.875Z,0.00
2018-05-25T02:49:21.870Z,0.00
2018-05-25T02:50:21.862Z,0.00
2018-05-25T02:51:21.864Z,0.00
2018-05-25T02:52:21.852Z,0.00
2018-05-25T02:53:21.844Z,0.00
2018-05-25T02:54:21.837Z,0.00
2018-05-25T02:55:21.832Z,0.00
2018-05-25T02:56:21.826Z,0.00
2018-05-25T02:57:21.899Z,0.00
2018-05-25T02:58:21.814Z,0.00
2018-05-25T02:59:21.807Z,0.00
2018-05-25T03:00:21.801Z,0.00
2018-05-25T03:01:21.796Z,0.00
2018-05-25T03:02:21.789Z,0.00
2018-05-25T03:03:21.783Z,0.00
2018-05-25T03:04:21.777Z,0.00
2018-05-25T03:05:21.771Z,0.00
2018-05-25T03:06:21.774Z,0.00
2018-05-25T03:07:21.758Z,0.00
2018-05-25T03:08:21.766Z,0.00
2018-05-25T03:09:21.751Z,0.00
2018-05-25T03:10:21.741Z,0.00
2018-05-25T03:11:21.734Z,0.00
2018-05-25T03:12:21.728Z,0.00
2018-05-25T03:13:21.725Z,0.00
2018-05-25T03:14:21.715Z,0.00
2018-05-25T03:15:21.709Z,0.00
2018-05-25T03:16:21.703Z,0.00
2018-05-25T03:17:21.696Z,0.00
2018-05-25T03:18:21.689Z,0.00
2018-05-25T03:19:21.683Z,0.00
2018-05-25T03:20:21.688Z,0.00
2018-05-25T03:21:21.675Z,0.00
2018-05-25T03:22:21.664Z,0.00
2018-05-25T03:23:21.658Z,0.00
2018-05-25T03:24:21.652Z,0.00
2018-05-25T03:25:21.648Z,0.00
2018-05-25T03:26:21.639Z,0.00
2018-05-25T03:27:21.633Z,5.63
2018-05-25T03:28:21.627Z,5.63
2018-05-25T03:29:21.621Z,5.63
2018-05-25T03:30:21.617Z,5.63
2018-05-25T03:31:21.611Z,5.63
2018-05-25T03:32:21.603Z,5.63
2018-05-25T03:33:21.596Z,5.63
2018-05-25T03:34:21.594Z,5.63
2018-05-25T03:35:21.583Z,5.63
2018-05-25T03:36:21.578Z,11.25
2018-05-25T03:37:21.571Z,11.25
2018-05-25T03:38:21.772Z,11.25
2018-05-25T03:39:21.558Z,11.25
2018-05-25T03:40:21.555Z,11.25
2018-05-25T03:41:21.546Z,11.25
2018-05-25T03:42:21.539Z,16.88
2018-05-25T03:43:21.533Z,16.88
2018-05-25T03:44:21.527Z,16.88
2018-05-25T03:45:21.527Z,16.88
2018-05-25T03:46:21.514Z,16.88
2018-05-25T03:47:21.512Z,16.88
2018-05-25T03:48:21.502Z,22.50
2018-05-25T03:49:21.498Z,22.50
2018-05-25T03:50:21.492Z,22.50
2018-05-25T03:51:21.483Z,22.50
2018-05-25T03:52:21.479Z,28.13
2018-05-25T03:53:21.473Z,28.13
2018-05-25T03:54:21.465Z,28.13
2018-05-25T03:55:21.458Z,28.13
2018-05-25T03:56:21.453Z,33.75
2018-05-25T03:57:21.450Z,33.75
2018-05-25T03:58:21.440Z,33.75
2018-05-25T03:59:21.437Z,33.75
2018-05-25T04:00:21.428Z,39.38
2018-05-25T04:01:21.627Z,39.38
2018-05-25T04:02:21.417Z,45.00
2018-05-25T04:03:21.409Z,45.00
2018-05-25T04:04:21.409Z,45.00
2018-05-25T04:05:21.399Z,45.00
2018-05-25T04:06:21.390Z,50.63
2018-05-25T04:07:21.384Z,50.63
2018-05-25T04:08:21.377Z,50.63
2018-05-25T04:09:21.373Z,56.25
2018-05-25T04:10:21.367Z,56.25
2018-05-25T04:11:21.358Z,61.88
2018-05-25T04:12:21.352Z,61.88
2018-05-25T04:13:21.350Z,67.50
2018-05-25T04:14:21.396Z,67.50
2018-05-25T04:15:21.333Z,67.50
2018-05-25T04:16:21.329Z,73.13
2018-05-25T04:17:21.321Z,73.13
2018-05-25T04:18:21.313Z,73.13
2018-05-25T04:19:21.308Z,78.75
2018-05-25T04:20:21.307Z,78.75
2018-05-25T04:21:21.295Z,84.38
2018-05-25T04:22:21.289Z,84.38
2018-05-25T04:23:21.282Z,84.38
2018-05-25T04:24:21.276Z,90.00
2018-05-25T04:25:21.272Z,90.00
2018-05-25T04:26:21.263Z,95.63
2018-05-25T04:27:21.257Z,95.63
2018-05-25T04:28:21.252Z,95.63
2018-05-25T04:29:21.245Z,101.25
2018-05-25T04:30:21.238Z,101.25
2018-05-25T04:31:21.232Z,101.25
2018-05-25T04:32:21.226Z,106.88
2018-05-25T04:33:21.223Z,106.88
2018-05-25T04:34:21.217Z,112.50
2018-05-25T04:35:21.210Z,112.50
2018-05-25T04:36:21.204Z,112.50
2018-05-25T04:37:21.195Z,112.50
2018-05-25T04:38:21.195Z,118.13
2018-05-25T04:39:21.182Z,118.13
2018-05-25T04:40:21.178Z,118.13
2018-05-25T04:41:21.170Z,123.75
2018-05-25T04:42:21.163Z,123.75
2018-05-25T04:43:21.213Z,129.38
2018-05-25T04:44:21.154Z,129.38
2018-05-25T04:45:21.149Z,129.38
2018-05-25T04:46:21.141Z,135.00
2018-05-25T04:47:21.133Z,135.00
2018-05-25T04:48:21.535Z,140.63
2018-05-25T04:49:21.129Z,140.63
2018-05-25T04:50:21.114Z,140.63
2018-05-25T04:51:21.108Z,146.25
2018-05-25T04:52:21.105Z,146.25
2018-05-25T04:53:21.097Z,146.25
2018-05-25T04:54:21.093Z,151.88
2018-05-25T04:55:21.084Z,151.88
2018-05-25T04:56:21.078Z,151.88
2018-05-25T04:57:21.073Z,157.50
2018-05-25T04:58:21.066Z,157.50
2018-05-25T04:59:21.061Z,157.50
2018-05-25T05:00:21.054Z,163.13
2018-05-25T05:01:21.052Z,163.13
2018-05-25T05:02:21.041Z,163.13
2018-05-25T05:03:21.036Z,168.75
2018-05-25T05:04:21.038Z,168.75
2018-05-25T05:05:21.024Z,174.38
2018-05-25T05:06:21.018Z,174.38
2018-05-25T05:07:21.012Z,174.38
2018-05-25T05:08:21.006Z,180.00
2018-05-25T05:09:21.000Z,180.00
2018-05-25T05:10:20.993Z,185.63
2018-05-25T05:11:20.989Z,185.63
2018-05-25T05:12:20.983Z,191.25
2018-05-25T05:13:20.977Z,191.25
2018-05-25T05:14:20.976Z,196.88
2018-05-25T05:15:20.966Z,196.88
2018-05-25T05:16:20.960Z,196.88
2018-05-25T05:17:20.957Z,196.88
2018-05-25T05:18:20.950Z,202.50
2018-05-25T05:19:20.943Z,202.50
2018-05-25T05:20:20.938Z,202.50
2018-05-25T05:21:20.938Z,208.13
2018-05-25T05:22:20.928Z,208.13
2018-05-25T05:23:20.922Z,213.75
2018-05-25T05:24:20.917Z,213.75
2018-05-25T05:25:20.913Z,219.38
2018-05-25T05:26:20.907Z,219.38
2018-05-25T05:27:20.901Z,219.38
2018-05-25T05:28:20.900Z,219.38
2018-05-25T05:29:20.891Z,225.00
2018-05-25T05:30:20.885Z,225.00
2018-05-25T05:31:21.082Z,230.63
2018-05-25T05:32:20.875Z,230.63
2018-05-25T05:33:20.875Z,236.25
2018-05-25T05:34:20.869Z,236.25
2018-05-25T05:35:20.859Z,241.88
2018-05-25T05:36:20.854Z,241.88
2018-05-25T05:37:21.052Z,247.50
2018-05-25T05:38:20.843Z,247.50
2018-05-25T05:39:20.840Z,253.13
2018-05-25T05:40:20.834Z,253.13
2018-05-25T05:41:20.829Z,258.75
2018-05-25T05:42:20.826Z,258.75
2018-05-25T05:43:20.819Z,264.38
2018-05-25T05:44:20.814Z,264.38
2018-05-25T05:45:20.810Z,270.00
2018-05-25T05:46:20.805Z,270.00
2018-05-25T05:47:20.800Z,270.00
2018-05-25T05:48:20.797Z,275.63
2018-05-25T05:49:20.791Z,275.63
2018-05-25T05:50:20.991Z,275.63
2018-05-25T05:52:20.979Z,281.25
2018-05-25T05:53:20.776Z,281.25
2018-05-25T05:54:20.773Z,281.25
2018-05-25T05:55:20.763Z,281.25
2018-05-25T05:56:20.759Z,281.25
2018-05-25T05:57:20.758Z,281.25
2018-05-25T05:58:20.750Z,281.25
2018-05-25T05:59:20.746Z,286.88
2018-05-25T06:00:20.746Z,286.88
2018-05-25T06:01:20.738Z,292.50
2018-05-25T06:02:20.733Z,292.50
2018-05-25T06:03:20.730Z,298.13
2018-05-25T06:04:20.745Z,298.13
2018-05-25T06:05:20.722Z,303.75
2018-05-25T06:06:20.721Z,303.75
2018-05-25T06:07:20.714Z,303.75
2018-05-25T06:08:20.713Z,309.38
2018-05-25T06:09:20.909Z,309.38
2018-05-25T06:10:20.702Z,309.38
2018-05-25T06:11:20.703Z,315.00
2018-05-25T06:12:20.702Z,315.00
2018-05-25T06:13:20.695Z,315.00
2018-05-25T06:14:20.690Z,320.63
2018-05-25T06:15:20.684Z,320.63
2018-05-25T06:16:20.681Z,326.25
2018-05-25T06:17:20.678Z,331.88
2018-05-25T06:18:20.673Z,331.88
2018-05-25T06:19:20.679Z,331.88
2018-05-25T06:20:20.667Z,337.50
2018-05-25T06:21:20.664Z,343.13
2018-05-25T06:22:20.659Z,348.75
2018-05-25T06:23:20.656Z,348.75
2018-05-25T06:24:20.655Z,354.38
2018-05-25T06:25:20.661Z,360.00
2018-05-25T06:26:20.647Z,360.00
2018-05-25T06:27:20.648Z,365.63
2018-05-25T06:29:20.638Z,376.88
2018-05-25T06:30:20.634Z,382.50
2018-05-25T06:31:20.632Z,382.50
2018-05-25T06:32:20.632Z,388.13
2018-05-25T06:33:20.632Z,393.75
2018-05-25T06:34:20.623Z,399.38
2018-05-25T06:35:20.621Z,399.38
2018-05-25T06:36:20.622Z,405.00
2018-05-25T06:37:20.615Z,410.63
2018-05-25T06:38:20.612Z,421.88
2018-05-25T06:39:20.608Z,455.63
2018-05-25T06:40:20.607Z,466.88
2018-05-25T06:41:20.608Z,438.75
2018-05-25T06:42:20.601Z,433.13
2018-05-25T06:43:20.599Z,438.75
2018-05-25T06:44:20.637Z,450.00
2018-05-25T06:45:20.594Z,461.25
2018-05-25T06:46:20.593Z,461.25
2018-05-25T06:47:20.791Z,466.88
2018-05-25T06:48:20.592Z,472.50
2018-05-25T06:49:20.586Z,483.75
2018-05-25T06:50:20.583Z,500.63
2018-05-25T06:51:20.581Z,511.88
2018-05-25T06:52:20.579Z,511.88
2018-05-25T06:53:20.578Z,517.50
2018-05-25T06:54:20.575Z,534.38
2018-05-25T06:55:20.573Z,540.00
2018-05-25T06:56:20.572Z,551.25
2018-05-25T06:57:20.572Z,568.13
2018-05-25T06:58:20.568Z,607.50
2018-05-25T06:59:20.569Z,663.75
2018-05-25T07:00:20.565Z,708.75
2018-05-25T07:01:20.570Z,1001.25
2018-05-25T07:02:20.562Z,810.00
2018-05-25T07:03:20.562Z,1198.13
2018-05-25T07:04:20.562Z,1670.63
2018-05-25T07:05:20.565Z,1265.63
2018-05-25T07:06:20.563Z,849.38
2018-05-25T07:07:20.565Z,596.25
2018-05-25T07:08:20.564Z,590.63
2018-05-25T07:09:20.567Z,601.88
2018-05-25T07:10:20.765Z,607.50
2018-05-25T07:11:20.567Z,742.50
2018-05-25T07:12:20.567Z,1428.75
2018-05-25T07:13:20.571Z,1940.63
2018-05-25T07:14:20.572Z,2148.75
2018-05-25T07:15:20.575Z,2137.50
2018-05-25T07:16:20.579Z,2188.13
2018-05-25T07:17:20.588Z,2250.00
2018-05-25T07:18:20.588Z,2317.50
2018-05-25T07:19:20.597Z,2356.88
2018-05-25T07:20:20.598Z,2328.75
2018-05-25T07:21:20.612Z,2283.75
2018-05-25T07:22:20.609Z,2300.63
2018-05-25T07:23:20.618Z,2407.50
2018-05-25T07:24:20.629Z,2486.25
2018-05-25T07:25:20.637Z,2306.25
2018-05-25T07:26:20.636Z,2480.63
2018-05-25T07:27:20.650Z,2514.38
2018-05-25T07:28:20.651Z,2463.75
2018-05-25T07:29:20.666Z,2373.75
2018-05-25T07:30:20.671Z,2109.38
2018-05-25T07:31:20.678Z,2345.63
2018-05-25T07:32:20.683Z,2356.88
2018-05-25T07:33:20.700Z,2542.50
2018-05-25T07:34:20.703Z,2593.13
2018-05-25T07:35:20.709Z,2514.38
2018-05-25T07:36:20.719Z,2497.50
2018-05-25T07:37:20.766Z,2660.63
2018-05-25T07:38:20.737Z,2604.38
2018-05-25T07:39:20.781Z,2581.88
2018-05-25T07:40:20.757Z,2491.88
2018-05-25T07:41:20.770Z,2424.38
2018-05-25T07:42:20.781Z,2610.00
2018-05-25T07:43:20.788Z,2655.00
2018-05-25T07:44:20.796Z,2587.50
2018-05-25T07:45:20.806Z,2441.25
2018-05-25T07:46:20.816Z,2413.13
2018-05-25T07:47:20.826Z,2385.00
2018-05-25T07:48:20.837Z,2323.13
2018-05-25T07:49:20.851Z,2525.63
2018-05-25T07:50:20.857Z,2598.75
2018-05-25T07:51:20.867Z,2576.25
2018-05-25T07:53:20.889Z,2700.00
2018-05-25T07:54:20.933Z,2469.38
2018-05-25T07:55:20.910Z,2255.63
2018-05-25T07:56:20.922Z,2649.38
2018-05-25T07:57:20.934Z,2576.25
2018-05-25T07:58:20.943Z,2373.75
2018-05-25T07:59:20.956Z,2480.63
2018-05-25T08:00:21.028Z,2632.50
2018-05-25T08:01:20.976Z,2919.38
2018-05-25T08:02:21.195Z,2840.63
2018-05-25T08:03:21.205Z,2958.75
2018-05-25T08:04:21.010Z,3099.38
2018-05-25T08:05:21.022Z,3172.50
2018-05-25T08:06:21.065Z,2896.88
2018-05-25T08:07:21.043Z,2520.00
2018-05-25T08:08:21.060Z,2683.13
2018-05-25T08:09:21.070Z,3240.00
2018-05-25T08:10:21.085Z,2913.75
2018-05-25T08:11:21.091Z,2666.25
2018-05-25T08:12:21.108Z,2868.75
2018-05-25T08:13:21.116Z,2941.88
2018-05-25T08:14:21.130Z,3352.50
2018-05-25T08:15:21.140Z,3133.13
2018-05-25T08:16:21.152Z,3206.25
2018-05-25T08:17:21.171Z,3251.25
2018-05-25T08:18:21.380Z,3099.38
2018-05-25T08:19:21.196Z,3465.00
2018-05-25T08:20:21.205Z,2863.13
2018-05-25T08:21:21.218Z,2711.25
2018-05-25T08:22:21.232Z,3076.88
2018-05-25T08:23:21.247Z,3183.75
2018-05-25T08:24:21.262Z,3110.63
2018-05-25T08:25:21.272Z,2722.50
2018-05-25T08:26:21.283Z,2323.13
2018-05-25T08:27:21.297Z,2643.75
2018-05-25T08:28:21.316Z,3043.13
2018-05-25T08:29:21.325Z,3116.25
2018-05-25T08:30:21.436Z,3200.63
2018-05-25T08:31:21.352Z,3178.13
2018-05-25T08:32:21.368Z,3285.00
2018-05-25T08:33:21.376Z,3155.63
2018-05-25T08:34:21.389Z,3003.75
2018-05-25T08:35:21.406Z,3060.00
2018-05-25T08:36:21.416Z,2835.00
2018-05-25T08:37:21.434Z,2857.50
2018-05-25T08:38:21.447Z,2919.38
2018-05-25T08:39:21.457Z,3121.88
2018-05-25T08:40:21.472Z,3206.25
2018-05-25T08:41:21.488Z,3245.63
2018-05-25T08:42:21.498Z,3195.00
2018-05-25T08:43:21.563Z,3211.88
2018-05-25T08:44:21.528Z,3414.38
2018-05-25T08:45:21.543Z,3403.13
2018-05-25T08:46:21.636Z,3285.00
2018-05-25T08:47:21.575Z,3369.38
2018-05-25T08:48:21.585Z,945.00
2018-05-25T08:49:21.613Z,2480.63
2018-05-25T08:50:21.619Z,3279.38
2018-05-25T08:51:21.626Z,1771.88
2018-05-25T08:52:21.641Z,3493.13
2018-05-25T08:53:21.653Z,3600.00
2018-05-25T08:54:21.666Z,3566.25
2018-05-25T08:55:21.682Z,3605.63
2018-05-25T08:56:21.697Z,3526.88
2018-05-25T08:57:21.715Z,3571.88
2018-05-25T08:58:21.727Z,3785.63
2018-05-25T08:59:21.738Z,3740.63
2018-05-25T09:00:21.753Z,3521.25
2018-05-25T09:01:21.790Z,3521.25
2018-05-25T09:02:21.781Z,3538.13
2018-05-25T09:03:21.797Z,3476.25
2018-05-25T09:04:21.815Z,3375.00
2018-05-25T09:05:21.827Z,3481.88
2018-05-25T09:06:21.844Z,3577.50
2018-05-25T09:07:21.857Z,3549.38
2018-05-25T09:08:21.873Z,3633.75
2018-05-25T09:09:21.890Z,3656.25
2018-05-25T09:10:21.905Z,3690.00
2018-05-25T09:11:21.921Z,3678.75
2018-05-25T09:12:21.980Z,3701.25
2018-05-25T09:13:21.955Z,3718.13
2018-05-25T09:14:21.971Z,3751.88
2018-05-25T09:15:21.988Z,3639.38
2018-05-25T09:16:22.008Z,3706.88
2018-05-25T09:17:22.022Z,3751.88
2018-05-25T09:18:22.039Z,3757.50
2018-05-25T09:19:22.057Z,3841.88
2018-05-25T09:20:22.077Z,3920.63
2018-05-25T09:21:22.099Z,3898.13
2018-05-25T09:22:22.116Z,3926.25
2018-05-25T09:23:22.329Z,3931.88
2018-05-25T09:24:22.146Z,3920.63
2018-05-25T09:25:22.164Z,3813.75
2018-05-25T09:26:22.185Z,3825.00
2018-05-25T09:27:22.199Z,3853.13
2018-05-25T09:28:22.218Z,3813.75
2018-05-25T09:29:22.237Z,3780.00
2018-05-25T09:30:22.255Z,3886.88
2018-05-25T09:31:22.273Z,3870.00
2018-05-25T09:32:22.291Z,3971.25
2018-05-25T09:33:22.313Z,3903.75
2018-05-25T09:34:22.330Z,1468.13
2018-05-25T09:35:22.351Z,2390.63
2018-05-25T09:36:22.381Z,956.25
2018-05-25T09:37:22.382Z,832.50
2018-05-25T09:38:22.399Z,855.00
2018-05-25T09:39:22.415Z,1366.88
2018-05-25T09:40:22.433Z,933.75
2018-05-25T09:41:22.448Z,3138.75
2018-05-25T09:42:22.468Z,3813.75
2018-05-25T09:43:22.512Z,3751.88
2018-05-25T09:44:22.488Z,3661.88
2018-05-25T09:45:22.499Z,1670.63
2018-05-25T09:46:22.511Z,3875.63
2018-05-25T09:47:22.526Z,1890.00
2018-05-25T09:48:22.543Z,4016.25
2018-05-25T09:49:22.557Z,4044.38
2018-05-25T09:50:22.571Z,4089.38
2018-05-25T09:51:22.584Z,3960.00
2018-05-25T09:52:22.598Z,3881.25
2018-05-25T09:53:22.614Z,3808.13
2018-05-25T09:54:22.629Z,2829.38
2018-05-25T09:55:22.645Z,1096.88
2018-05-25T09:56:22.862Z,1147.50
2018-05-25T09:57:22.677Z,939.38
2018-05-25T09:58:22.697Z,871.88
2018-05-25T09:59:22.706Z,911.25
2018-05-25T10:00:22.715Z,933.75
2018-05-25T10:01:22.730Z,945.00
2018-05-25T10:02:22.742Z,928.13
2018-05-25T10:03:22.751Z,928.13
2018-05-25T10:04:22.760Z,911.25
2018-05-25T10:05:22.776Z,939.38
2018-05-25T10:06:22.784Z,1029.38
2018-05-25T10:07:22.793Z,1209.38
2018-05-25T10:08:22.805Z,1468.13
2018-05-25T10:09:22.809Z,1023.75
2018-05-25T10:10:22.817Z,911.25
2018-05-25T10:11:22.826Z,990.00
2018-05-25T10:12:22.839Z,877.50
2018-05-25T10:13:22.854Z,911.25
2018-05-25T10:14:22.853Z,1175.63
2018-05-25T10:15:22.863Z,2120.63
2018-05-25T10:16:22.874Z,3650.63
2018-05-25T10:17:22.877Z,1968.75
2018-05-25T10:18:22.890Z,3796.88
2018-05-25T10:19:22.897Z,3622.50
2018-05-25T10:20:22.908Z,3234.38
2018-05-25T10:21:22.916Z,3442.50
2018-05-25T10:22:22.927Z,3526.88
2018-05-25T10:23:22.942Z,3442.50
2018-05-25T10:24:22.955Z,3487.50
2018-05-25T10:25:22.963Z,3324.38
2018-05-25T10:26:22.975Z,3313.13
2018-05-25T10:27:22.991Z,3211.88
2018-05-25T10:28:23.010Z,3296.25
2018-05-25T10:29:23.019Z,3335.63
2018-05-25T10:30:23.030Z,3161.25
2018-05-25T10:31:23.052Z,2941.88
2018-05-25T10:32:23.059Z,1125.00
2018-05-25T10:33:23.074Z,1096.88
2018-05-25T10:34:23.088Z,1181.25
2018-05-25T10:35:23.107Z,2716.88
2018-05-25T10:36:23.120Z,3155.63
2018-05-25T10:37:23.135Z,3150.00
2018-05-25T10:38:23.148Z,3065.63
2018-05-25T10:39:23.158Z,1434.38
2018-05-25T10:40:23.175Z,2705.63
2018-05-25T10:41:23.390Z,2829.38
2018-05-25T10:42:23.207Z,2896.88
2018-05-25T10:43:23.226Z,2716.88
2018-05-25T10:44:23.239Z,2660.63
2018-05-25T10:45:23.253Z,2536.88
2018-05-25T10:46:23.465Z,2559.38
2018-05-25T10:47:23.284Z,2632.50
2018-05-25T10:48:23.298Z,2418.75
2018-05-25T10:49:23.309Z,2520.00
2018-05-25T10:50:23.528Z,2733.75
2018-05-25T10:51:23.341Z,2823.75
2018-05-25T10:52:23.358Z,2778.75
2018-05-25T10:53:23.375Z,2565.00
2018-05-25T10:54:23.388Z,2542.50
2018-05-25T10:55:23.404Z,2581.88
2018-05-25T10:56:23.425Z,2739.38
2018-05-25T10:57:23.437Z,3009.38
2018-05-25T10:58:23.452Z,3144.38
2018-05-25T10:59:23.472Z,2919.38
2018-05-25T11:00:23.492Z,2851.88
2018-05-25T11:01:23.512Z,2801.25
2018-05-25T11:03:23.533Z,2733.75
2018-05-25T11:04:23.550Z,2739.38
2018-05-25T11:05:23.571Z,2683.13
2018-05-25T11:06:23.579Z,2750.63
2018-05-25T11:07:23.598Z,2846.25
2018-05-25T11:08:23.615Z,2846.25
2018-05-25T11:09:23.628Z,2835.00
2018-05-25T11:10:23.641Z,2486.25
2018-05-25T11:11:23.663Z,2418.75
2018-05-25T11:12:23.676Z,2739.38
2018-05-25T11:13:23.691Z,2407.50
2018-05-25T11:14:23.702Z,2233.13
2018-05-25T11:15:23.717Z,2728.13
2018-05-25T11:16:23.735Z,2722.50
2018-05-25T11:17:23.747Z,2671.88
2018-05-25T11:18:23.762Z,1541.25
2018-05-25T11:19:23.776Z,1732.50
2018-05-25T11:20:23.797Z,2778.75
2018-05-25T11:21:23.809Z,2801.25
2018-05-25T11:22:23.820Z,2801.25
2018-05-25T11:23:23.835Z,2666.25
2018-05-25T11:24:23.855Z,2666.25
2018-05-25T11:25:23.864Z,2604.38
2018-05-25T11:26:23.878Z,2565.00
2018-05-25T11:27:23.897Z,2503.13
2018-05-25T11:28:23.909Z,2401.88
2018-05-25T11:29:23.923Z,1867.50
2018-05-25T11:30:23.947Z,2165.63
2018-05-25T11:31:23.951Z,2081.25
2018-05-25T11:32:23.965Z,2182.50
2018-05-25T11:33:23.984Z,1845.00
2018-05-25T11:34:24.002Z,2160.00
2018-05-25T11:35:24.006Z,2396.25
2018-05-25T11:36:24.019Z,2480.63
2018-05-25T11:37:24.034Z,2323.13
2018-05-25T11:38:24.052Z,2441.25
2018-05-25T11:39:24.060Z,2199.38
2018-05-25T11:40:24.078Z,2244.38
2018-05-25T11:41:24.087Z,2396.25
2018-05-25T11:42:24.100Z,2143.13
2018-05-25T11:43:24.113Z,2109.38
2018-05-25T11:44:24.127Z,1462.50
2018-05-25T11:45:24.141Z,1423.13
2018-05-25T11:46:24.153Z,1935.00
2018-05-25T11:47:24.171Z,2075.63
2018-05-25T11:48:24.181Z,2255.63
2018-05-25T11:49:24.194Z,2182.50
2018-05-25T11:50:24.203Z,2396.25
2018-05-25T11:51:24.216Z,2154.38
2018-05-25T11:52:24.232Z,1715.63
2018-05-25T11:53:24.243Z,1451.25
2018-05-25T11:54:24.256Z,1406.25
2018-05-25T11:55:24.266Z,1254.38
2018-05-25T11:56:24.282Z,1198.13
2018-05-25T11:57:24.289Z,1113.75
2018-05-25T11:58:24.308Z,1012.50
2018-05-25T11:59:24.312Z,961.88
2018-05-25T12:00:24.327Z,950.63
2018-05-25T12:01:24.332Z,945.00
2018-05-25T12:02:24.344Z,967.50
2018-05-25T12:03:24.351Z,961.88
2018-05-25T12:04:24.361Z,1080.00
2018-05-25T12:05:24.370Z,1035.00
2018-05-25T12:06:24.385Z,1665.00
2018-05-25T12:07:24.390Z,1096.88
2018-05-25T12:08:24.401Z,1119.38
2018-05-25T12:09:24.406Z,1147.50
2018-05-25T12:10:24.414Z,1265.63
2018-05-25T12:11:24.425Z,1220.63
2018-05-25T12:12:24.431Z,1170.00
2018-05-25T12:13:24.446Z,1181.25
2018-05-25T12:14:24.450Z,1580.63
2018-05-25T12:15:24.455Z,1417.50
2018-05-25T12:16:24.505Z,1648.13
2018-05-25T12:17:24.477Z,1974.38
2018-05-25T12:18:24.482Z,2250.00
2018-05-25T12:19:24.488Z,2238.75
2018-05-25T12:20:24.497Z,2328.75
2018-05-25T12:21:24.507Z,2199.38
2018-05-25T12:22:24.516Z,2165.63
2018-05-25T12:23:24.532Z,2311.88
2018-05-25T12:24:24.536Z,2385.00
2018-05-25T12:25:24.548Z,2300.63
2018-05-25T12:26:24.558Z,2328.75
2018-05-25T12:27:24.568Z,2385.00
2018-05-25T12:28:24.577Z,2542.50
2018-05-25T12:29:24.585Z,2559.38
2018-05-25T12:30:24.600Z,2598.75
2018-05-25T12:31:24.606Z,2486.25
2018-05-25T12:32:24.618Z,2356.88
2018-05-25T12:33:24.629Z,2418.75
2018-05-25T12:34:24.639Z,2480.63
2018-05-25T12:35:24.656Z,2716.88
2018-05-25T12:36:24.667Z,2812.50
2018-05-25T12:37:24.679Z,2902.50
2018-05-25T12:38:24.692Z,2874.38